createdAt,value
2024-04-30T00:00:38.484Z,4.80
2024-04-30T00:03:05.874Z,4.53
2024-04-30T00:05:33.190Z,4.32
2024-04-30T00:08:00.666Z,4.40
2024-04-30T00:10:27.957Z,4.15
2024-04-30T00:12:55.294Z,3.83
2024-04-30T00:15:22.568Z,4.30
2024-04-30T00:17:49.772Z,3.80
2024-04-30T00:20:17.143Z,4.53
2024-04-30T00:22:44.471Z,3.70
2024-04-30T00:25:11.805Z,3.85
2024-04-30T00:27:39.466Z,4.45
2024-04-30T00:30:07.574Z,3.65
2024-04-30T00:32:35.015Z,3.65
2024-04-30T00:35:02.313Z,4.82
2024-04-30T00:37:29.706Z,3.90
2024-04-30T00:39:57.007Z,4.10
2024-04-30T00:42:24.186Z,4.68
2024-04-30T00:44:51.770Z,4.25
2024-04-30T00:47:19.309Z,3.97
2024-04-30T00:49:46.734Z,4.43
2024-04-30T00:52:14.063Z,4.35
2024-04-30T00:54:41.498Z,4.50
2024-04-30T00:57:09.452Z,4.47
2024-04-30T00:59:36.704Z,4.25
2024-04-30T01:02:04.821Z,4.18
2024-04-30T01:04:32.260Z,4.63
2024-04-30T01:06:59.567Z,4.20
2024-04-30T01:09:26.824Z,4.22
2024-04-30T01:11:54.068Z,4.30
2024-04-30T01:14:21.463Z,4.13
2024-04-30T01:16:48.765Z,3.95
2024-04-30T01:19:16.488Z,4.55
2024-04-30T01:21:43.763Z,4.47
2024-04-30T01:24:10.980Z,3.85
2024-04-30T01:26:38.470Z,4.57
2024-04-30T01:29:05.901Z,4.90
2024-04-30T01:31:33.116Z,4.22
2024-04-30T01:34:00.537Z,4.72
2024-04-30T01:36:28.026Z,4.57
2024-04-30T01:38:55.191Z,4.80
2024-04-30T01:41:22.414Z,4.80
2024-04-30T01:43:49.671Z,4.30
2024-04-30T01:46:16.897Z,4.70
2024-04-30T01:48:44.416Z,4.93
2024-04-30T01:51:12.053Z,4.32
2024-04-30T01:53:45.121Z,4.88
2024-04-30T01:56:12.438Z,4.45
2024-04-30T01:58:40.027Z,4.82
2024-04-30T02:01:07.510Z,5.15
2024-04-30T02:03:34.912Z,4.88
2024-04-30T02:06:02.300Z,4.60
2024-04-30T02:08:29.561Z,4.78
2024-04-30T02:10:56.855Z,4.15
2024-04-30T02:13:24.194Z,4.47
2024-04-30T02:15:51.860Z,4.50
2024-04-30T02:18:19.256Z,4.30
2024-04-30T02:20:46.454Z,4.28
2024-04-30T02:23:13.705Z,4.43
2024-04-30T02:25:41.114Z,4.95
2024-04-30T02:28:08.404Z,4.72
2024-04-30T02:30:54.166Z,4.90
2024-04-30T02:33:40.234Z,4.70
2024-04-30T02:36:11.061Z,4.88
2024-04-30T02:38:38.286Z,4.72
2024-04-30T02:41:08.079Z,4.47
2024-04-30T02:43:35.523Z,5.30
2024-04-30T02:46:02.821Z,5.47
2024-04-30T02:48:30.267Z,5.50
2024-04-30T02:50:57.543Z,5.55
2024-04-30T02:53:24.781Z,5.07
2024-04-30T02:55:51.985Z,5.22
2024-04-30T02:58:19.244Z,5.07
2024-04-30T03:00:46.627Z,5.35
2024-04-30T03:03:14.032Z,5.22
2024-04-30T03:05:41.333Z,4.80
2024-04-30T03:08:08.591Z,4.90
2024-04-30T03:10:35.935Z,5.00
2024-04-30T03:13:03.374Z,5.40
2024-04-30T03:15:30.652Z,5.05
2024-04-30T03:17:58.279Z,5.07
2024-04-30T03:20:25.484Z,5.10
2024-04-30T03:22:52.717Z,5.22
2024-04-30T03:25:20.021Z,4.72
2024-04-30T03:27:47.402Z,5.68
2024-04-30T03:30:14.847Z,5.40
2024-04-30T03:32:42.793Z,5.32
2024-04-30T03:35:10.129Z,5.50
2024-04-30T03:37:37.582Z,5.35
2024-04-30T03:40:05.808Z,5.05
2024-04-30T03:42:33.215Z,5.82
2024-04-30T03:45:00.537Z,6.10
2024-04-30T03:47:27.918Z,5.90
2024-04-30T03:49:57.124Z,5.68
2024-04-30T03:52:25.883Z,5.57
2024-04-30T03:54:53.201Z,6.10
2024-04-30T03:57:20.448Z,6.28
2024-04-30T03:59:47.757Z,6.60
2024-04-30T04:02:14.931Z,6.38
2024-04-30T04:04:42.210Z,6.35
2024-04-30T04:07:09.549Z,6.18
2024-04-30T04:09:36.828Z,6.60
2024-04-30T04:12:36.273Z,6.75
2024-04-30T04:15:03.665Z,6.38
2024-04-30T04:17:31.109Z,6.35
2024-04-30T04:19:58.498Z,7.28
2024-04-30T04:22:25.806Z,7.03
2024-04-30T04:24:52.981Z,6.45
2024-04-30T04:27:20.258Z,7.50
2024-04-30T04:29:47.528Z,6.15
2024-04-30T04:32:14.810Z,6.75
2024-04-30T04:34:42.681Z,7.50
2024-04-30T04:37:09.979Z,7.10
2024-04-30T04:39:37.220Z,6.82
2024-04-30T04:42:05.955Z,7.15
2024-04-30T04:44:33.234Z,7.18
2024-04-30T04:47:00.511Z,6.38
2024-04-30T04:49:27.749Z,6.97
2024-04-30T04:51:55.023Z,6.15
2024-04-30T04:54:22.447Z,7.00
2024-04-30T04:56:49.694Z,6.68
2024-04-30T04:59:17.009Z,7.28
2024-04-30T05:01:44.299Z,6.93
2024-04-30T05:04:12.286Z,7.03
2024-04-30T05:06:42.752Z,7.25
2024-04-30T05:09:10.061Z,6.63
2024-04-30T05:11:37.342Z,6.63
2024-04-30T05:14:04.617Z,6.55
2024-04-30T05:16:31.936Z,6.13
2024-04-30T05:19:00.235Z,6.25
2024-04-30T05:21:27.748Z,5.60
2024-04-30T05:23:55.331Z,5.30
2024-04-30T05:26:22.581Z,5.45
2024-04-30T05:28:49.836Z,5.75
2024-04-30T05:31:17.143Z,5.53
2024-04-30T05:33:44.478Z,5.68
2024-04-30T05:36:11.769Z,5.35
2024-04-30T05:38:39.378Z,4.97
2024-04-30T05:41:07.331Z,5.35
2024-04-30T05:43:34.792Z,5.22
2024-04-30T05:46:02.559Z,5.10
2024-04-30T05:48:29.980Z,4.65
2024-04-30T05:50:57.245Z,4.60
2024-04-30T05:53:24.502Z,4.72
2024-04-30T05:55:52.192Z,4.30
2024-04-30T05:58:19.560Z,3.88
2024-04-30T06:00:47.200Z,4.53
2024-04-30T06:03:14.728Z,3.50
2024-04-30T06:05:41.979Z,3.78
2024-04-30T06:08:09.203Z,3.80
2024-04-30T06:10:36.462Z,3.55
2024-04-30T06:13:05.351Z,2.92
2024-04-30T06:15:32.577Z,3.42
2024-04-30T06:18:01.110Z,3.60
2024-04-30T06:20:28.380Z,3.00
2024-04-30T06:22:56.103Z,3.30
2024-04-30T06:25:23.412Z,2.83
2024-04-30T06:27:50.683Z,3.00
2024-04-30T06:30:17.885Z,2.67
2024-04-30T06:32:45.234Z,2.58
2024-04-30T06:35:12.515Z,2.10
2024-04-30T06:37:39.760Z,2.13
2024-04-30T06:40:07.763Z,2.85
2024-04-30T06:42:35.120Z,2.58
2024-04-30T06:45:02.370Z,2.30
2024-04-30T06:47:29.785Z,1.92
2024-04-30T06:49:57.107Z,2.40
2024-04-30T06:52:24.357Z,2.33
2024-04-30T06:54:51.680Z,2.58
2024-04-30T06:57:18.974Z,2.20
2024-04-30T06:59:46.393Z,2.30
2024-04-30T07:02:13.638Z,2.55
2024-04-30T07:04:40.888Z,2.35
2024-04-30T07:07:08.184Z,2.47
2024-04-30T07:09:35.493Z,1.92
2024-04-30T07:12:02.742Z,2.28
2024-04-30T07:14:32.510Z,2.33
2024-04-30T07:17:06.104Z,2.28
2024-04-30T07:19:36.110Z,2.38
2024-04-30T07:22:03.552Z,2.33
2024-04-30T07:24:31.220Z,2.47
2024-04-30T07:26:58.475Z,2.08
2024-04-30T07:29:25.814Z,2.20
2024-04-30T07:31:53.178Z,2.17
2024-04-30T07:34:20.585Z,2.28
2024-04-30T07:36:48.056Z,2.40
2024-04-30T07:39:15.364Z,2.17
2024-04-30T07:41:42.951Z,2.35
2024-04-30T07:44:10.196Z,2.17
2024-04-30T07:46:37.820Z,2.08
2024-04-30T07:49:05.704Z,1.80
2024-04-30T07:51:32.932Z,2.65
2024-04-30T07:54:00.190Z,1.80
2024-04-30T07:56:27.479Z,2.08
2024-04-30T07:58:54.697Z,2.20
2024-04-30T08:01:22.008Z,2.30
2024-04-30T08:03:49.737Z,1.77
2024-04-30T08:06:20.695Z,2.30
2024-04-30T08:08:48.637Z,1.98
2024-04-30T08:11:16.448Z,2.17
2024-04-30T08:13:45.493Z,1.85
2024-04-30T08:16:13.427Z,2.17
2024-04-30T08:18:40.850Z,2.00
2024-04-30T08:21:08.723Z,1.95
2024-04-30T08:23:36.403Z,1.98
2024-04-30T08:26:04.050Z,1.83
2024-04-30T08:28:31.403Z,1.83
2024-04-30T08:30:59.404Z,1.70
2024-04-30T08:33:27.145Z,1.70
2024-04-30T08:35:54.455Z,1.98
2024-04-30T08:38:21.740Z,2.17
2024-04-30T08:40:49.114Z,2.90
2024-04-30T08:43:17.248Z,2.10
2024-04-30T08:45:45.223Z,1.77
2024-04-30T08:48:13.356Z,2.33
2024-04-30T08:50:42.831Z,2.30
2024-04-30T08:53:10.922Z,2.10
2024-04-30T08:55:40.278Z,1.70
2024-04-30T08:58:07.750Z,2.13
2024-04-30T09:00:35.405Z,2.45
2024-04-30T09:03:04.416Z,2.83
2024-04-30T09:05:33.867Z,1.80
2024-04-30T09:08:03.084Z,2.03
2024-04-30T09:10:31.589Z,1.70
2024-04-30T09:13:02.336Z,2.00
2024-04-30T09:15:29.650Z,1.85
2024-04-30T09:18:10.035Z,2.08
2024-04-30T09:20:47.841Z,2.15
2024-04-30T09:23:29.823Z,2.10
2024-04-30T09:25:58.246Z,1.60
2024-04-30T09:28:27.682Z,1.95
2024-04-30T09:31:02.881Z,1.75
2024-04-30T09:33:30.337Z,2.22
2024-04-30T09:36:17.330Z,1.92
2024-04-30T09:38:45.546Z,1.90
2024-04-30T09:41:16.970Z,1.60
2024-04-30T09:43:44.553Z,2.10
2024-04-30T09:46:12.982Z,2.05
2024-04-30T09:48:41.671Z,2.40
2024-04-30T09:51:13.966Z,2.00
2024-04-30T09:53:41.915Z,1.67
2024-04-30T09:56:10.042Z,1.73
2024-04-30T09:58:38.590Z,2.47
2024-04-30T10:01:11.002Z,1.63
2024-04-30T10:03:41.328Z,2.65
2024-04-30T10:06:10.881Z,2.03
2024-04-30T10:08:44.096Z,2.03
2024-04-30T10:11:13.407Z,2.22
2024-04-30T10:13:54.448Z,1.80
2024-04-30T10:16:22.788Z,2.40
2024-04-30T10:19:01.715Z,2.17
2024-04-30T10:21:38.085Z,1.83
2024-04-30T10:24:19.426Z,2.58
2024-04-30T10:26:51.797Z,1.73
2024-04-30T10:29:20.344Z,1.98
2024-04-30T10:31:48.938Z,1.80
2024-04-30T10:34:17.056Z,1.77
2024-04-30T10:36:52.593Z,2.20
2024-04-30T10:39:27.174Z,2.00
2024-04-30T10:41:54.820Z,2.20
2024-04-30T10:44:22.026Z,1.83
2024-04-30T10:46:50.197Z,2.15
2024-04-30T10:49:22.994Z,2.00
2024-04-30T10:51:51.672Z,2.35
2024-04-30T10:54:19.115Z,1.90
2024-04-30T10:56:46.635Z,2.30
2024-04-30T10:59:13.887Z,2.05
2024-04-30T11:01:41.187Z,2.10
2024-04-30T11:04:10.657Z,1.92
2024-04-30T11:06:47.062Z,2.10
2024-04-30T11:09:16.474Z,2.53
2024-04-30T11:11:48.871Z,2.20
2024-04-30T11:14:24.417Z,1.90
2024-04-30T11:19:21.779Z,1.63
2024-04-30T11:21:51.774Z,2.50
2024-04-30T11:24:19.175Z,2.08
2024-04-30T11:26:49.947Z,2.15
2024-04-30T11:29:30.706Z,1.70
2024-04-30T11:32:05.429Z,2.30
2024-04-30T11:34:32.736Z,1.90
2024-04-30T11:37:00.008Z,2.17
2024-04-30T11:39:27.294Z,2.00
2024-04-30T11:42:01.876Z,1.95
2024-04-30T11:44:40.575Z,1.92
2024-04-30T11:47:08.059Z,1.60
2024-04-30T11:49:36.644Z,1.90
2024-04-30T11:52:04.923Z,1.73
2024-04-30T11:54:32.446Z,2.00
2024-04-30T11:56:59.771Z,1.80
2024-04-30T11:59:27.090Z,1.90
2024-04-30T12:01:54.363Z,2.17
2024-04-30T12:04:26.658Z,2.28
2024-04-30T12:06:54.216Z,2.15
2024-04-30T12:09:22.438Z,2.10
2024-04-30T12:11:49.859Z,1.77
2024-04-30T12:14:17.818Z,2.10
2024-04-30T12:16:47.291Z,2.03
2024-04-30T12:19:15.944Z,1.83
2024-04-30T12:21:44.398Z,1.77
2024-04-30T12:24:11.940Z,2.20
2024-04-30T12:26:39.262Z,1.83
2024-04-30T12:29:06.895Z,2.50
2024-04-30T12:31:34.302Z,1.95
2024-04-30T12:34:01.735Z,1.92
2024-04-30T12:36:30.126Z,1.63
2024-04-30T12:38:57.396Z,1.42
2024-04-30T12:41:24.596Z,1.70
2024-04-30T12:43:51.855Z,1.75
2024-04-30T12:46:19.692Z,1.55
2024-04-30T12:48:47.153Z,1.75
2024-04-30T12:51:17.704Z,2.03
2024-04-30T12:53:47.581Z,1.70
2024-04-30T12:56:17.843Z,1.90
2024-04-30T12:58:45.199Z,2.00
2024-04-30T13:01:16.706Z,1.80
2024-04-30T13:03:44.324Z,1.83
2024-04-30T13:06:13.115Z,2.20
2024-04-30T13:08:40.369Z,1.60
2024-04-30T13:11:07.679Z,1.45
2024-04-30T13:13:37.786Z,1.67
2024-04-30T13:16:05.583Z,1.90
2024-04-30T13:18:32.903Z,1.60
2024-04-30T13:21:00.152Z,1.50
2024-04-30T13:23:27.371Z,1.73
2024-04-30T13:25:54.623Z,1.98
2024-04-30T13:28:21.876Z,1.40
2024-04-30T13:30:49.186Z,1.60
2024-04-30T13:33:18.019Z,1.60
2024-04-30T13:35:45.375Z,1.85
2024-04-30T13:38:12.635Z,1.20
2024-04-30T13:40:39.924Z,1.55
2024-04-30T13:43:08.218Z,1.55
2024-04-30T13:45:36.535Z,1.45
2024-04-30T13:48:04.401Z,1.27
2024-04-30T13:50:31.811Z,1.58
2024-04-30T13:52:59.115Z,1.45
2024-04-30T13:55:26.371Z,1.77
2024-04-30T13:57:53.690Z,1.60
2024-04-30T14:00:21.315Z,1.70
2024-04-30T14:02:48.803Z,1.73
2024-04-30T14:05:16.104Z,1.60
2024-04-30T14:07:46.971Z,1.60
2024-04-30T14:10:14.562Z,1.60
2024-04-30T14:12:46.120Z,1.95
2024-04-30T14:15:13.513Z,1.40
2024-04-30T14:17:40.866Z,1.60
2024-04-30T14:20:08.616Z,1.40
2024-04-30T14:22:36.128Z,1.25
2024-04-30T14:25:03.461Z,1.73
2024-04-30T14:27:30.850Z,1.63
2024-04-30T14:29:58.103Z,1.73
2024-04-30T14:32:26.845Z,1.90
2024-04-30T14:34:54.337Z,1.80
2024-04-30T14:37:22.074Z,1.80
2024-04-30T14:39:52.427Z,1.63
2024-04-30T14:42:19.810Z,1.30
2024-04-30T14:44:49.329Z,1.40
2024-04-30T14:47:16.669Z,1.67
2024-04-30T14:49:44.066Z,2.05
2024-04-30T14:52:11.444Z,1.30
2024-04-30T14:54:41.491Z,2.47
2024-04-30T14:57:08.714Z,1.58
2024-04-30T14:59:37.139Z,1.60
2024-04-30T15:02:04.590Z,1.38
2024-04-30T15:04:31.919Z,1.40
2024-04-30T15:06:59.133Z,1.50
2024-04-30T15:09:27.136Z,1.80
2024-04-30T15:11:55.861Z,1.45
2024-04-30T15:14:23.083Z,1.60
2024-04-30T15:16:50.432Z,1.50
2024-04-30T15:19:17.898Z,1.70
2024-04-30T15:21:45.256Z,1.27
2024-04-30T15:24:12.757Z,1.67
2024-04-30T15:26:40.275Z,1.75
2024-04-30T15:29:07.645Z,1.52
2024-04-30T15:31:34.992Z,1.80
2024-04-30T15:34:02.323Z,1.38
2024-04-30T15:36:29.561Z,1.38
2024-04-30T15:38:57.043Z,1.55
2024-04-30T15:41:24.480Z,1.45
2024-04-30T15:43:52.001Z,1.38
2024-04-30T15:46:19.598Z,1.70
2024-04-30T15:48:50.356Z,1.40
2024-04-30T15:51:17.990Z,1.70
2024-04-30T15:53:45.284Z,1.60
2024-04-30T15:56:18.126Z,1.70
2024-04-30T15:58:47.869Z,1.85
2024-04-30T16:01:15.941Z,1.88
2024-04-30T16:03:43.480Z,1.60
2024-04-30T16:06:11.458Z,1.70
2024-04-30T16:08:39.146Z,1.70
2024-04-30T16:11:10.557Z,1.40
2024-04-30T16:13:40.251Z,1.38
2024-04-30T16:16:15.578Z,1.73
2024-04-30T16:18:47.264Z,1.65
2024-04-30T16:21:16.139Z,1.25
2024-04-30T16:23:44.671Z,1.48
2024-04-30T16:26:12.142Z,1.98
2024-04-30T16:28:44.072Z,1.60
2024-04-30T16:31:12.235Z,1.50
2024-04-30T16:33:39.847Z,1.65
2024-04-30T16:36:08.526Z,1.83
2024-04-30T16:38:38.521Z,1.90
2024-04-30T16:41:05.866Z,1.67
2024-04-30T16:43:33.165Z,1.67
2024-04-30T16:46:00.373Z,2.30
2024-04-30T16:48:28.473Z,1.88
2024-04-30T16:50:55.924Z,1.33
2024-04-30T16:53:23.147Z,1.50
2024-04-30T16:55:50.433Z,1.60
2024-04-30T16:58:17.759Z,1.63
2024-04-30T17:00:45.236Z,1.60
2024-04-30T17:03:12.636Z,1.80
2024-04-30T17:05:40.224Z,1.75
2024-04-30T17:08:07.924Z,1.50
2024-04-30T17:10:35.216Z,1.75
2024-04-30T17:13:02.705Z,1.45
2024-04-30T17:15:31.033Z,1.48
2024-04-30T17:17:58.500Z,2.30
2024-04-30T17:20:26.503Z,1.70
2024-04-30T17:22:53.854Z,1.63
2024-04-30T17:25:21.150Z,1.90
2024-04-30T17:27:48.450Z,2.00
2024-04-30T17:30:15.835Z,1.80
2024-04-30T17:32:43.548Z,1.52
2024-04-30T17:35:10.770Z,1.95
2024-04-30T17:37:38.024Z,1.80
2024-04-30T17:40:06.004Z,2.63
2024-04-30T17:42:34.656Z,1.80
2024-04-30T17:45:03.016Z,1.70
2024-04-30T17:47:30.433Z,1.70
2024-04-30T17:49:57.738Z,1.73
2024-04-30T17:52:24.998Z,1.52
2024-04-30T17:54:52.379Z,1.77
2024-04-30T17:57:19.749Z,1.48
2024-04-30T17:59:47.040Z,1.90
2024-04-30T18:02:14.308Z,1.63
2024-04-30T18:04:42.630Z,1.40
2024-04-30T18:07:10.384Z,1.70
2024-04-30T18:09:41.231Z,1.30
2024-04-30T18:12:09.111Z,1.92
2024-04-30T18:14:36.987Z,2.00
2024-04-30T18:17:04.846Z,1.92
2024-04-30T18:19:32.236Z,1.75
2024-04-30T18:21:59.510Z,1.70
2024-04-30T18:24:26.880Z,1.85
2024-04-30T18:26:54.134Z,1.55
2024-04-30T18:29:21.358Z,1.98
2024-04-30T18:31:52.955Z,1.77
2024-04-30T18:34:20.360Z,1.50
2024-04-30T18:36:47.906Z,1.55
2024-04-30T18:39:16.271Z,2.40
2024-04-30T18:41:44.231Z,1.70
2024-04-30T18:44:12.899Z,2.15
2024-04-30T18:46:40.882Z,1.80
2024-04-30T18:49:08.353Z,1.60
2024-04-30T18:51:41.473Z,1.80
2024-04-30T18:54:09.674Z,2.25
2024-04-30T18:56:40.614Z,1.75
2024-04-30T18:59:07.982Z,2.20
2024-04-30T19:01:35.313Z,1.50
2024-04-30T19:04:06.028Z,2.17
2024-04-30T19:06:33.374Z,1.75
2024-04-30T19:09:00.712Z,2.08
2024-04-30T19:11:28.192Z,2.35
2024-04-30T19:13:55.634Z,1.90
2024-04-30T19:16:22.899Z,2.20
2024-04-30T19:18:50.434Z,1.83
2024-04-30T19:21:18.772Z,1.90
2024-04-30T19:23:46.263Z,1.83
2024-04-30T19:26:18.056Z,1.88
2024-04-30T19:28:46.288Z,2.22
2024-04-30T19:31:20.075Z,2.22
2024-04-30T19:33:48.403Z,2.28
2024-04-30T19:36:18.317Z,1.80
2024-04-30T19:38:46.328Z,1.77
2024-04-30T19:41:14.810Z,2.00
2024-04-30T19:43:42.288Z,1.90
2024-04-30T19:46:21.466Z,2.13
2024-04-30T19:48:52.327Z,1.92
2024-04-30T19:51:21.996Z,2.22
2024-04-30T19:53:55.961Z,1.90
2024-04-30T19:56:23.892Z,2.10
2024-04-30T19:58:57.259Z,2.40
2024-04-30T20:01:29.255Z,2.20
2024-04-30T20:03:58.367Z,2.47
2024-04-30T20:06:26.335Z,2.80
2024-04-30T20:08:53.798Z,3.22
2024-04-30T20:11:24.837Z,2.58
2024-04-30T20:13:53.647Z,2.70
2024-04-30T20:16:21.403Z,2.17
2024-04-30T20:18:49.797Z,2.60
2024-04-30T20:21:17.365Z,2.50
2024-04-30T20:23:45.567Z,2.70
2024-04-30T20:26:13.491Z,2.53
2024-04-30T20:28:41.352Z,2.60
2024-04-30T20:31:08.946Z,2.45
2024-04-30T20:33:36.835Z,2.78
2024-04-30T20:36:04.515Z,2.47
2024-04-30T20:38:32.756Z,2.80
2024-04-30T20:40:59.963Z,2.92
2024-04-30T20:43:27.249Z,2.28
2024-04-30T20:45:54.580Z,2.92
2024-04-30T20:48:22.047Z,2.72
2024-04-30T20:50:49.409Z,2.70
2024-04-30T20:53:16.634Z,3.08
2024-04-30T20:55:45.592Z,2.80
2024-04-30T20:58:13.510Z,2.40
2024-04-30T21:00:40.897Z,2.45
2024-04-30T21:03:08.777Z,2.78
2024-04-30T21:05:36.044Z,2.67
2024-04-30T21:08:03.410Z,2.97
2024-04-30T21:10:30.683Z,2.67
2024-04-30T21:13:01.498Z,2.83
2024-04-30T21:15:28.947Z,2.45
2024-04-30T21:17:56.254Z,2.70
2024-04-30T21:20:23.542Z,2.70
2024-04-30T21:22:50.876Z,2.83
2024-04-30T21:25:18.140Z,2.90
2024-04-30T21:27:45.400Z,2.60
2024-04-30T21:30:13.288Z,2.45
2024-04-30T21:32:40.621Z,2.72
2024-04-30T21:35:13.418Z,2.33
2024-04-30T21:37:41.416Z,2.45
2024-04-30T21:40:12.065Z,2.13
2024-04-30T21:42:39.432Z,2.50
2024-04-30T21:45:07.198Z,2.50
2024-04-30T21:47:34.918Z,2.13
2024-04-30T21:50:02.234Z,2.20
2024-04-30T21:52:29.964Z,2.00
2024-04-30T21:54:57.306Z,2.33
2024-04-30T21:57:24.713Z,2.17
2024-04-30T21:59:51.971Z,2.30
2024-04-30T22:02:19.228Z,2.38
2024-04-30T22:04:46.683Z,2.30
2024-04-30T22:07:16.860Z,2.25
2024-04-30T22:09:44.996Z,2.22
2024-04-30T22:12:12.299Z,2.33
2024-04-30T22:14:39.516Z,2.13
2024-04-30T22:17:06.869Z,2.10
2024-04-30T22:19:34.116Z,2.17
2024-04-30T22:22:01.449Z,2.03
2024-04-30T22:24:29.104Z,1.95
2024-04-30T22:26:56.381Z,2.38
2024-04-30T22:29:23.807Z,2.00
2024-04-30T22:31:52.125Z,2.17
2024-04-30T22:34:19.559Z,2.60
2024-04-30T22:36:46.984Z,2.45
2024-04-30T22:39:14.402Z,2.50
2024-04-30T22:41:41.579Z,2.50
2024-04-30T22:44:08.899Z,2.60
2024-04-30T22:46:36.250Z,2.78
2024-04-30T22:49:03.599Z,2.55
2024-04-30T22:51:32.134Z,2.33
2024-04-30T22:53:59.443Z,2.40
2024-04-30T22:56:27.471Z,2.90
2024-04-30T22:58:55.508Z,3.15
2024-04-30T23:01:22.813Z,2.58
2024-04-30T23:03:50.135Z,2.85
2024-04-30T23:06:17.350Z,3.10
2024-04-30T23:08:44.606Z,2.97
2024-04-30T23:11:11.884Z,2.70
2024-04-30T23:13:39.194Z,3.03
2024-04-30T23:16:06.929Z,2.88
2024-04-30T23:18:34.397Z,3.50
2024-04-30T23:21:01.742Z,2.90
2024-04-30T23:23:29.015Z,2.70
2024-04-30T23:25:56.290Z,3.40
2024-04-30T23:28:23.497Z,3.03
2024-04-30T23:30:50.746Z,2.97
2024-04-30T23:33:17.959Z,3.42
2024-04-30T23:35:45.157Z,2.80
2024-04-30T23:38:12.391Z,2.65
2024-04-30T23:40:39.594Z,3.13
2024-04-30T23:43:06.948Z,3.28
2024-04-30T23:45:34.201Z,3.20
2024-04-30T23:48:01.456Z,3.38
2024-04-30T23:50:28.749Z,2.70
2024-04-30T23:52:56.161Z,3.25
2024-04-30T23:55:23.458Z,3.33
2024-04-30T23:57:50.831Z,2.80
